Jennings, Oklahoma
Current Conditions -  °F | °C
As of 2:15 AM on Sunday 21 Dec 2014 (Local Time) from KCUH Reporting Station
Overcast Overcast  
Wind Chill: 38°   Ceiling: 2900
Heat Index: 41°   Visibility: 10mi
Dew Point: 39°   Wind: 5mph
Humidity: 93%   Direction: 180°S
Pressure: 30.12"   Gusts: NA
Location:  36.18°N, 96.57°W
Report Text: KCUH 210815Z AUTO 18004KT 10SM OVC029 05/04 A3012 RMK AO2
Loading
Personal Weather Stations






























Interactive Weather Map New forecast layout! Learn more

10-Day Weather Forecast

Advertisements
Track Severe Weather on mobile